Time;durP1;ratioP1;P1;durP2;ratioP2;P2;SDS_P1;SDS_P2;PMS_P1;PMS_P2;Temp;Humidity;BMP_temperature;BMP_pressure;BME280_temperature;BME280_humidity;BME280_pressure;Samples;Min_cycle;Max_cycle;Signal;HPM_P1;HPM_P2
2022/04/24 00:00:25;;;;;;;9.20;5.75;;;;;;;;;;5072957;28;20047;-86
2022/04/24 00:03:10;;;;;;;7.60;5.95;;;;;;;;;;5072946;28;20111;-87
2022/04/24 00:05:55;;;;;;;9.98;6.60;;;;;;;;;;5072614;28;20089;-86
2022/04/24 00:08:39;;;;;;;8.88;6.20;;;;;;;;;;5072493;28;20138;-86
2022/04/24 00:11:24;;;;;;;8.70;5.90;;;;;;;;;;5072615;28;20499;-85
2022/04/24 00:14:10;;;;;;;9.73;6.93;;;;;;;;;;5072877;28;20098;-86
2022/04/24 00:16:55;;;;;;;9.00;5.45;;;;;;;;;;5071382;28;20094;-86
2022/04/24 00:19:40;;;;;;;10.65;6.75;;;;;;;;;;5072195;28;20055;-86
2022/04/24 00:22:24;;;;;;;10.95;7.18;;;;;;;;;;5072689;28;20495;-85
2022/04/24 00:25:09;;;;;;;7.75;6.30;;;;;;;;;;5073655;28;20044;-87
2022/04/24 00:27:53;;;;;;;11.82;6.05;;;;;;;;;;5072041;28;20059;-85
2022/04/24 00:30:38;;;;;;;7.70;6.20;;;;;;;;;;5073004;28;20143;-90
2022/04/24 00:33:23;;;;;;;8.88;5.93;;;;;;;;;;5071974;28;20059;-85
2022/04/24 00:36:08;;;;;;;8.77;6.40;;;;;;;;;;5086677;28;20090;-85
2022/04/24 00:38:52;;;;;;;10.65;5.60;;;;;;;;;;5086196;28;20504;-85
2022/04/24 00:41:47;;;;;;;8.63;6.03;;;8.30;99.90;;;;;;5073378;28;20044;-88
2022/04/24 00:44:32;;;;;;;8.85;6.18;;;9.00;99.90;;;;;;5073339;28;20109;-86
2022/04/24 00:47:18;;;;;;;8.48;6.10;;;;;;;;;;5058155;28;20087;-86
2022/04/24 00:50:03;;;;;;;8.23;6.30;;;;;;;;;;5071591;28;20097;-86
2022/04/24 00:52:48;;;;;;;7.93;6.18;;;;;;;;;;5085839;28;20542;-86
2022/04/24 00:55:32;;;;;;;10.10;6.25;;;;;;;;;;5072075;28;20047;-85
2022/04/24 00:58:17;;;;;;;8.27;6.00;;;;;;;;;;5072132;28;20035;-86
2022/04/24 01:01:02;;;;;;;8.85;6.30;;;;;;;;;;5085829;28;20046;-86
2022/04/24 01:03:47;;;;;;;17.67;6.93;;;;;;;;;;5071554;28;20054;-86
2022/04/24 01:06:34;;;;;;;9.10;6.28;;;8.80;99.90;;;;;;5071928;28;20039;-85
2022/04/24 01:09:20;;;;;;;9.55;6.57;;;8.80;99.90;;;;;;5072968;28;20075;-86
2022/04/24 01:12:06;;;;;;;7.18;5.50;;;;;;;;;;5071578;28;20083;-85
2022/04/24 01:14:50;;;;;;;12.68;6.65;;;;;;;;;;5071591;28;20086;-86
2022/04/24 01:17:35;;;;;;;9.73;6.70;;;;;;;;;;5071692;28;20105;-86
2022/04/24 01:20:20;;;;;;;9.48;6.20;;;;;;;;;;5071740;28;20063;-86
2022/04/24 01:23:05;;;;;;;11.25;6.15;;;;;;;;;;5072420;28;20035;-86
2022/04/24 01:25:49;;;;;;;8.73;6.40;;;;;;;;;;5071411;28;20060;-87
2022/04/24 01:28:34;;;;;;;11.15;6.03;;;;;;;;;;5085967;28;20074;-86
2022/04/24 01:31:18;;;;;;;9.35;6.15;;;;;;;;;;5071727;28;20047;-85
2022/04/24 01:34:03;;;;;;;10.13;7.15;;;;;;;;;;5072643;28;20083;-86
2022/04/24 01:36:48;;;;;;;12.35;6.80;;;;;;;;;;5071291;28;20039;-87
2022/04/24 01:39:32;;;;;;;9.43;6.53;;;;;;;;;;5071504;28;20039;-86
2022/04/24 01:42:17;;;;;;;10.10;6.35;;;;;;;;;;5071565;28;20099;-86
2022/04/24 01:45:02;;;;;;;11.02;6.43;;;;;;;;;;5071144;28;20088;-85
2022/04/24 01:47:46;;;;;;;9.55;6.60;;;;;;;;;;5072351;28;20043;-91
2022/04/24 01:50:31;;;;;;;9.85;6.80;;;;;;;;;;5071225;28;20470;-86
2022/04/24 01:53:15;;;;;;;9.40;6.68;;;;;;;;;;5072759;28;20064;-86
2022/04/24 01:56:05;;;;;;;11.75;7.18;;;;;;;;;;5071251;28;20136;-86
2022/04/24 01:58:49;;;;;;;11.77;6.32;;;;;;;;;;5071148;28;20462;-89
2022/04/24 02:01:36;;;;;;;8.48;5.80;;;;;;;;;;5071639;28;20036;-85
2022/04/24 02:04:23;;;;;;;11.23;5.63;;;;;;;;;;5085424;28;20086;-86
2022/04/24 02:07:08;;;;;;;10.68;6.95;;;;;;;;;;5070977;28;20351;-86
2022/04/24 02:09:53;;;;;;;9.30;6.18;;;;;;;;;;5070881;28;20062;-86
2022/04/24 02:12:40;;;;;;;9.48;6.60;;;;;;;;;;5071471;28;20032;-86
2022/04/24 02:15:25;;;;;;;10.10;6.57;;;;;;;;;;5072330;28;20043;-86
2022/04/24 02:18:09;;;;;;;8.55;6.60;;;;;;;;;;5072112;28;20090;-86
2022/04/24 02:20:54;;;;;;;9.40;6.55;;;;;;;;;;5071963;28;20521;-86
2022/04/24 02:23:38;;;;;;;11.32;6.47;;;;;;;;;;5071312;28;20043;-86
2022/04/24 02:26:23;;;;;;;13.88;6.85;;;;;;;;;;5071271;28;20039;-86
2022/04/24 02:29:07;;;;;;;12.32;7.13;;;;;;;;;;5085125;28;20043;-87
2022/04/24 02:31:51;;;;;;;9.02;6.80;;;;;;;;;;5070883;28;20047;-92
2022/04/24 02:34:36;;;;;;;10.25;7.07;;;;;;;;;;5085292;28;20057;-87
2022/04/24 02:37:22;;;;;;;10.20;6.88;;;;;;;;;;5071082;28;20048;-86
2022/04/24 02:40:10;;;;;;;11.05;7.30;;;;;;;;;;5072627;28;20500;-86
2022/04/24 02:42:54;;;;;;;9.52;6.75;;;;;;;;;;5074394;28;20086;-90
2022/04/24 02:45:40;;;;;;;10.52;6.90;;;;;;;;;;5089074;28;20043;-85
2022/04/24 02:48:27;;;;;;;10.02;6.93;;;;;;;;;;5074887;28;20058;-86
2022/04/24 02:51:12;;;;;;;8.93;6.72;;;;;;;;;;5074291;28;20396;-86
2022/04/24 02:53:56;;;;;;;9.63;7.10;;;;;;;;;;5074115;28;20089;-88
2022/04/24 02:56:41;;;;;;;9.20;7.03;;;;;;;;;;5074699;28;20529;-86
2022/04/24 02:59:26;;;;;;;8.35;6.38;;;;;;;;;;5088810;28;20079;-86
2022/04/24 03:02:14;;;;;;;11.02;7.50;;;;;;;;;;5074126;28;20082;-86
2022/04/24 03:04:59;;;;;;;11.40;6.88;;;;;;;;;;5074982;28;20078;-85
2022/04/24 03:07:43;;;;;;;10.90;7.15;;;;;;;;;;5074483;28;20139;-86
2022/04/24 03:10:29;;;;;;;10.45;7.70;;;;;;;;;;5074042;28;20549;-86
2022/04/24 03:13:14;;;;;;;11.60;7.53;;;;;;;;;;5073901;28;20039;-85
2022/04/24 03:15:59;;;;;;;12.55;7.00;;;;;;;;;;5073729;28;20167;-92
2022/04/24 03:18:43;;;;;;;9.85;7.30;;;;;;;;;;5092858;28;20050;-86
2022/04/24 03:21:28;;;;;;;12.10;7.05;;;;;;;;;;5088382;28;20075;-86
2022/04/24 03:24:13;;;;;;;11.85;6.88;;;;;;;;;;5073516;28;20039;-86
2022/04/24 03:26:57;;;;;;;10.95;7.15;;;;;;;;;;5073845;28;20047;-86
2022/04/24 03:29:42;;;;;;;9.90;7.70;;;;;;;;;;5074973;28;20085;-86
2022/04/24 03:32:31;;;;;;;11.52;7.15;;;;;;;;;;5088114;28;20083;-86
2022/04/24 03:35:15;;;;;;;10.75;7.03;;;;;;;;;;5074387;28;20392;-86
2022/04/24 03:38:01;;;;;;;9.75;7.03;;;;;;;;;;5073434;28;20090;-90
2022/04/24 03:40:45;;;;;;;13.23;8.07;;;;;;;;;;5073731;28;20042;-86
2022/04/24 03:43:30;;;;;;;12.02;6.57;;;;;;;;;;5073501;28;20491;-86
2022/04/24 03:46:15;;;;;;;10.02;6.68;;;;;;;;;;5073028;28;20040;-86
2022/04/24 03:48:59;;;;;;;12.73;7.78;;;;;;;;;;5073478;28;20071;-86
2022/04/24 03:51:44;;;;;;;8.63;6.43;;;;;;;;;;5073057;28;20046;-85
2022/04/24 03:54:28;;;;;;;9.60;7.03;;;;;;;;;;5073195;28;20538;-85
2022/04/24 03:57:13;;;;;;;9.65;7.03;;;;;;;;;;5072819;28;20487;-85
2022/04/24 03:59:58;;;;;;;10.82;7.63;;;;;;;;;;5074203;28;20114;-85
2022/04/24 04:02:43;;;;;;;9.93;6.63;;;;;;;;;;5073250;28;20074;-85
2022/04/24 04:05:29;;;;;;;13.52;7.25;;;;;;;;;;5072920;28;20404;-86
2022/04/24 04:08:14;;;;;;;11.55;6.88;;;;;;;;;;5073779;28;20055;-86
2022/04/24 04:10:59;;;;;;;10.45;6.68;;;;;;;;;;5087053;28;20051;-85
2022/04/24 04:13:44;;;;;;;11.85;7.22;;;;;;;;;;5073866;28;20043;-85
2022/04/24 04:16:29;;;;;;;11.85;7.03;;;;;;;;;;5073484;28;20082;-85
2022/04/24 04:19:14;;;;;;;10.18;6.68;;;;;;;;;;5072232;28;20499;-86
2022/04/24 04:21:58;;;;;;;11.40;7.10;;;;;;;;;;5072763;28;20090;-86
2022/04/24 04:24:44;;;;;;;11.48;6.95;;;6.90;99.90;;;;;;5073801;28;20047;-85
2022/04/24 04:27:28;;;;;;;13.05;8.30;;;;;;;;;;5072497;28;20061;-85
2022/04/24 04:30:13;;;;;;;9.82;7.50;;;;;;;;;;5072142;28;20043;-86
2022/04/24 04:32:57;;;;;;;10.63;7.47;;;;;;;;;;5072468;28;20472;-86
2022/04/24 04:35:42;;;;;;;13.10;7.20;;;;;;;;;;5072730;28;20396;-85
2022/04/24 04:38:27;;;;;;;11.35;6.90;;;;;;;;;;5073202;28;20112;-85
2022/04/24 04:41:11;;;;;;;13.20;6.90;;;;;;;;;;5073206;28;20043;-87
2022/04/24 04:43:55;;;;;;;11.25;7.22;;;;;;;;;;5086847;28;20089;-86
2022/04/24 04:46:40;;;;;;;10.30;6.72;;;;;;;;;;5072267;28;20035;-86
2022/04/24 04:49:25;;;;;;;12.07;6.57;;;;;;;;;;5071916;28;20491;-85
2022/04/24 04:52:09;;;;;;;10.63;7.28;;;;;;;;;;5072449;28;20047;-86
2022/04/24 04:54:53;;;;;;;9.57;6.30;;;;;;;;;;5072309;28;20101;-86
2022/04/24 04:57:38;;;;;;;9.93;7.10;;;;;;;;;;5073440;28;20039;-85
2022/04/24 05:00:23;;;;;;;9.35;6.63;;;;;;;;;;5071829;28;20542;-86
2022/04/24 05:03:07;;;;;;;14.00;7.18;;;;;;;;;;5071501;28;20103;-86
2022/04/24 05:05:52;;;;;;;10.15;7.22;;;;;;;;;;5072293;28;20103;-86
2022/04/24 05:08:37;;;;;;;9.90;6.97;;;;;;;;;;5071708;28;20046;-86
2022/04/24 05:11:24;;;;;;;10.75;6.10;;;;;;;;;;5071604;28;20039;-86
2022/04/24 05:14:09;;;;;;;11.50;6.20;;;;;;;;;;5071876;28;20039;-85
2022/04/24 05:16:53;;;;;;;11.20;6.55;;;;;;;;;;5073039;28;20039;-85
2022/04/24 05:19:38;;;;;;;12.20;6.65;;;;;;;;;;5072631;28;20075;-86
2022/04/24 05:22:23;;;;;;;12.15;6.25;;;;;;;;;;5071544;28;20086;-86
2022/04/24 05:25:09;;;;;;;12.05;6.20;;;7.30;99.90;;;;;;5071885;28;20039;-87
2022/04/24 05:27:54;;;;;;;9.05;6.30;;;;;;;;;;5072164;28;20043;-86
2022/04/24 05:30:38;;;;;;;11.98;7.03;;;;;;;;;;5071541;28;20048;-87
2022/04/24 05:33:23;;;;;;;11.07;6.93;;;;;;;;;;5072449;28;20136;-87
2022/04/24 05:36:08;;;;;;;8.68;6.25;;;;;;;;;;5085915;28;20067;-87
2022/04/24 05:38:52;;;;;;;13.13;7.03;;;;;;;;;;5071847;28;20084;-87
2022/04/24 05:41:37;;;;;;;8.93;6.60;;;;;;;;;;5071279;28;20047;-86
2022/04/24 05:44:22;;;;;;;9.55;6.70;;;;;;;;;;5071336;28;20043;-86
2022/04/24 05:47:06;;;;;;;10.52;6.47;;;;;;;;;;5071530;28;20039;-87
2022/04/24 05:49:51;;;;;;;14.82;7.45;;;;;;;;;;5071638;28;20060;-87
2022/04/24 05:52:35;;;;;;;11.50;6.90;;;;;;;;;;5071035;28;20094;-86
2022/04/24 05:55:20;;;;;;;18.65;7.43;;;;;;;;;;5071193;28;20047;-91
2022/04/24 05:58:05;;;;;;;14.30;7.13;;;;;;;;;;5071438;28;20070;-87
2022/04/24 06:00:49;;;;;;;13.98;8.20;;;;;;;;;;5085695;28;20048;-87
2022/04/24 06:03:38;;;;;;;12.10;7.70;;;8.10;99.90;;;;;;5070823;28;20035;-87
2022/04/24 06:06:22;;;;;;;10.45;7.65;;;;;;;;;;5071957;28;20082;-91
2022/04/24 06:09:07;;;;;;;12.55;7.72;;;;;;;;;;5072380;28;20040;-87
2022/04/24 06:11:53;;;;;;;10.68;6.97;;;;;;;;;;5071171;28;20047;-87
2022/04/24 06:14:38;;;;;;;11.50;7.95;;;;;;;;;;5086342;28;20400;-87
2022/04/24 06:17:22;;;;;;;13.70;7.25;;;;;;;;;;5074935;28;20091;-90
2022/04/24 06:20:07;;;;;;;9.98;6.57;;;;;;;;;;5074924;28;20043;-90
2022/04/24 06:22:53;;;;;;;10.27;7.15;;;8.80;99.90;;;;;;5072975;28;20126;-87
2022/04/24 06:25:39;;;;;;;11.40;7.20;;;8.80;99.90;;;;;;5074125;28;20161;-87
2022/04/24 06:28:23;;;;;;;13.68;7.38;;;;;;;;;;5075164;28;20170;-89
2022/04/24 06:31:08;;;;;;;10.55;7.60;;;;;;;;;;5073177;28;20039;-87
2022/04/24 06:33:52;;;;;;;10.93;6.95;;;;;;;;;;5074401;28;20139;-86
2022/04/24 06:36:38;;;;;;;10.27;7.20;;;;;;;;;;5072763;28;20120;-87
2022/04/24 06:39:22;;;;;;;9.75;7.55;;;;;;;;;;5088774;28;20103;-86
2022/04/24 06:42:07;;;;;;;10.57;6.68;;;9.40;99.90;;;;;;5074526;28;20128;-87
2022/04/24 06:44:51;;;;;;;11.75;7.53;;;;;;;;;;5074369;28;20442;-87
2022/04/24 06:47:36;;;;;;;10.85;7.25;;;;;;;;;;5074198;28;20114;-86
2022/04/24 06:50:22;;;;;;;12.15;6.57;;;;;;;;;;5075332;28;20063;-85
2022/04/24 06:53:09;;;;;;;9.93;6.43;;;9.50;99.90;;;;;;5074033;28;20082;-89
2022/04/24 06:55:56;;;;;;;10.95;6.55;;;;;;;;;;5072859;28;20031;-87
2022/04/24 06:58:40;;;;;;;10.13;5.68;;;;;;;;;;5072383;28;20040;-86
2022/04/24 07:01:26;;;;;;;9.75;6.45;;;;;;;;;;5072531;28;20047;-88
2022/04/24 07:04:11;;;;;;;8.63;5.57;;;;;;;;;;5074479;28;20120;-86
2022/04/24 07:06:56;;;;;;;7.88;5.25;;;;;;;;;;5087598;28;20047;-86
2022/04/24 07:09:40;;;;;;;8.60;5.75;;;;;;;;;;5072352;28;20052;-86
2022/04/24 07:12:25;;;;;;;8.80;5.07;;;;;;;;;;5072874;28;20130;-87
2022/04/24 07:15:09;;;;;;;7.57;4.30;;;;;;;;;;5073234;28;20047;-88
2022/04/24 07:17:56;;;;;;;8.73;4.70;;;;;;;;;;5073474;28;20043;-87
2022/04/24 07:20:41;;;;;;;6.70;4.03;;;;;;;;;;5074045;28;20051;-87
2022/04/24 07:23:28;;;;;;;9.43;4.20;;;;;;;;;;5074084;28;20086;-87
2022/04/24 07:26:13;;;;;;;8.18;3.90;;;;;;;;;;5072487;28;20042;-88
2022/04/24 07:28:58;;;;;;;7.13;3.88;;;;;;;;;;5072932;28;20500;-87
2022/04/24 07:31:42;;;;;;;9.52;3.47;;;;;;;;;;5072961;28;20135;-88
2022/04/24 07:34:27;;;;;;;6.78;3.75;;;;;;;;;;5073426;28;20538;-87
2022/04/24 07:37:12;;;;;;;5.40;3.10;;;;;;;;;;5087430;28;20039;-87
2022/04/24 07:39:57;;;;;;;4.78;3.42;;;;;;;;;;5073246;28;20043;-86
2022/04/24 07:42:45;;;;;;;5.18;3.20;;;12.70;99.90;;;;;;5072563;28;20044;-87
2022/04/24 07:45:33;;;;;;;6.90;2.97;;;12.60;99.70;;;;;;5087431;28;20051;-89
2022/04/24 07:48:18;;;;;;;4.78;3.10;;;;;;;;;;5074356;28;20112;-86
2022/04/24 07:51:03;;;;;;;4.05;2.47;;;;;;;;;;5073329;28;20124;-89
2022/04/24 07:53:48;;;;;;;6.13;2.92;;;;;;;;;;5072624;28;20447;-87
2022/04/24 07:56:32;;;;;;;4.80;2.25;;;;;;;;;;5073067;28;20089;-91
2022/04/24 07:59:16;;;;;;;4.72;2.40;;;;;;;;;;5072925;28;20044;-87
2022/04/24 08:02:01;;;;;;;4.38;2.50;;;;;;;;;;5072197;28;20480;-86
2022/04/24 08:04:46;;;;;;;4.38;2.60;;;;;;;;;;5072158;28;20531;-85
2022/04/24 08:07:30;;;;;;;3.63;2.55;;;;;;;;;;5072742;28;20439;-84
2022/04/24 08:10:15;;;;;;;3.60;2.45;;;;;;;;;;5072900;28;20396;-88
2022/04/24 08:13:00;;;;;;;7.18;2.65;;;;;;;;;;5072806;28;20443;-86
2022/04/24 08:15:45;;;;;;;4.53;2.40;;;;;;;;;;5072302;28;20039;-86
2022/04/24 08:18:30;;;;;;;4.25;2.33;;;13.50;99.90;;;;;;5073866;28;20119;-85
2022/04/24 08:21:15;;;;;;;5.28;2.80;;;;;;;;;;5086900;28;20043;-90
2022/04/24 08:23:59;;;;;;;5.40;2.47;;;;;;;;;;5072078;28;20179;-88
2022/04/24 08:26:44;;;;;;;3.88;2.30;;;;;;;;;;5072713;28;20090;-87
2022/04/24 08:29:28;;;;;;;4.63;2.30;;;;;;;;;;5073831;28;20120;-90
2022/04/24 08:32:13;;;;;;;5.22;2.85;;;;;;;;;;5073348;28;20506;-89
2022/04/24 08:34:58;;;;;;;6.18;2.70;;;;;;;;;;5072606;28;20690;-86
2022/04/24 08:37:43;;;;;;;7.90;2.83;;;;;;;;;;5072301;28;20062;-86
2022/04/24 08:40:27;;;;;;;5.97;2.72;;;;;;;;;;5072529;28;20042;-85
2022/04/24 08:43:14;;;;;;;5.68;2.47;;;;;;;;;;5072497;28;20043;-86
2022/04/24 08:45:59;;;;;;;5.75;2.53;;;;;;;;;;5072570;28;20039;-84
2022/04/24 08:48:45;;;;;;;5.32;2.80;;;;;;;;;;5071630;28;20590;-84
2022/04/24 08:51:31;;;;;;;4.15;2.63;;;;;;;;;;5071802;28;20043;-86
2022/04/24 08:54:16;;;;;;;4.38;2.40;;;;;;;;;;5071957;28;20043;-84
2022/04/24 08:57:00;;;;;;;4.00;2.75;;;;;;;;;;5072511;28;20031;-84
2022/04/24 08:59:46;;;;;;;6.65;2.85;;;15.40;90.10;;;;;;5071134;28;20082;-85
2022/04/24 09:02:31;;;;;;;8.88;2.92;;;;;;;;;;5071926;28;20035;-84
2022/04/24 09:05:16;;;;;;;5.78;2.90;;;;;;;;;;5072806;28;20040;-85
2022/04/24 09:08:11;;;;;;;5.03;2.80;;;15.70;88.80;;;;;;5070925;28;20047;-84
2022/04/24 09:10:57;;;;;;;7.45;2.83;;;;;;;;;;5071253;28;20127;-84
2022/04/24 09:16:49;;;;;;;7.17;3.30;;;;;;;;;;5072315;28;20047;-86
2022/04/24 09:19:36;;;;;;;5.93;3.13;;;;;;;;;;5071725;28;20496;-84
2022/04/24 09:22:22;;;;;;;5.70;2.78;;;;;;;;;;5085618;28;20087;-85
2022/04/24 09:25:07;;;;;;;7.82;2.83;;;;;;;;;;5071280;28;20044;-85
2022/04/24 09:27:54;;;;;;;5.65;3.03;;;16.10;84.00;;;;;;5072216;28;20120;-85
2022/04/24 09:30:49;;;;;;;4.90;2.80;;;;;;;;;;5071299;28;20062;-85
2022/04/24 09:33:43;;;;;;;6.57;3.10;;;;;;;;;;5071394;28;20137;-84
2022/04/24 09:36:28;;;;;;;6.15;3.08;;;;;;;;;;5071105;28;20032;-85
2022/04/24 09:39:13;;;;;;;5.80;2.55;;;;;;;;;;5071359;28;20094;-84
2022/04/24 09:42:01;;;;;;;5.10;2.90;;;;;;;;;;5070969;28;20090;-83
2022/04/24 09:44:50;;;;;;;5.70;2.85;;;16.30;80.40;;;;;;5071997;28;20098;-88
2022/04/24 09:47:35;;;;;;;6.72;2.92;;;;;;;;;;5071201;28;20058;-84
2022/04/24 09:50:19;;;;;;;5.43;3.00;;;;;;;;;;5076463;28;20562;-84
2022/04/24 09:53:05;;;;;;;5.65;2.83;;;;;;;;;;5075164;28;20040;-84
2022/04/24 09:55:50;;;;;;;7.18;2.65;;;;;;;;;;5076219;28;20055;-86
2022/04/24 09:58:36;;;;;;;6.28;2.50;;;;;;;;;;5075531;28;20043;-85
2022/04/24 10:01:22;;;;;;;4.93;2.50;;;;;;;;;;5076513;28;20063;-84
2022/04/24 10:04:07;;;;;;;4.13;2.38;;;16.50;76.40;;;;;;5075914;28;20059;-87
2022/04/24 10:06:52;;;;;;;4.40;3.13;;;;;;;;;;5074801;28;20032;-85
2022/04/24 10:09:39;;;;;;;5.32;2.92;;;;;;;;;;5076166;28;20036;-84
2022/04/24 10:12:24;;;;;;;5.88;2.90;;;;;;;;;;5075056;28;20051;-85
2022/04/24 10:15:13;;;;;;;4.43;2.55;;;;;;;;;;5074573;28;20089;-85
2022/04/24 10:18:17;;;;;;;4.63;2.58;;;;;;;;;;5074608;28;20102;-85
2022/04/24 10:21:21;;;;;;;5.13;2.50;;;17.20;74.40;;;;;;5074545;28;20075;-84
2022/04/24 10:24:07;;;;;;;6.00;2.60;;;;;;;;;;5074516;28;20495;-88
2022/04/24 10:26:53;;;;;;;4.18;2.55;;;;;;;;;;5074605;28;20036;-88
2022/04/24 10:31:57;;;;;;;4.07;2.35;;;;;;;;;;5163396;27;854324;-82
2022/04/24 10:34:41;;;;;;;5.28;3.03;;;;;;;;;;5177263;27;20166;-82
2022/04/24 10:37:27;;;;;;;5.50;3.05;;;;;;;;;;5162446;27;20037;-84
2022/04/24 10:40:13;;;;;;;5.53;2.97;;;;;;;;;;5161974;27;20774;-84
2022/04/24 10:43:04;;;;;;;4.28;2.50;;;;;;;;;;5192185;27;20089;-84
2022/04/24 10:45:49;;;;;;;8.43;2.80;;;;;;;;;;5192989;27;20513;-84
2022/04/24 10:48:34;;;;;;;3.30;2.10;;;;;;;;;;5159734;27;20041;-86
2022/04/24 10:51:29;;;;;;;3.80;2.05;;;;;;;;;;5161596;27;20049;-83
2022/04/24 10:54:15;;;;;;;4.25;2.20;;;;;;;;;;5192324;27;20034;-85
2022/04/24 10:57:00;;;;;;;5.75;2.60;;;;;;;;;;5191952;27;20477;-84
2022/04/24 10:59:52;;;;;;;4.00;2.50;;;;;;;;;;5176754;27;20041;-83
2022/04/24 11:02:37;;;;;;;3.83;2.20;;;;;;;;;;5176916;27;20480;-84
2022/04/24 11:05:26;;;;;;;5.55;2.40;;;;;;;;;;5192046;27;20542;-83
2022/04/24 11:08:20;;;;;;;5.28;2.30;;;;;;;;;;5155183;27;20034;-84
2022/04/24 11:11:05;;;;;;;3.38;1.95;;;;;;;;;;5155137;27;20134;-86
2022/04/24 11:13:50;;;;;;;6.53;2.60;;;;;;;;;;5155674;27;20042;-86
2022/04/24 11:16:35;;;;;;;4.80;2.85;;;;;;;;;;5141115;27;20042;-85
2022/04/24 11:19:36;;;;;;;6.00;1.90;;;16.50;70.10;;;;;;5154825;27;20087;-85
2022/04/24 11:22:21;;;;;;;6.22;2.63;;;;;;;;;;5155040;27;20059;-85
2022/04/24 11:25:06;;;;;;;5.22;2.30;;;;;;;;;;5155059;27;20038;-84
2022/04/24 11:27:56;;;;;;;7.05;2.30;;;;;;;;;;5155288;27;20394;-86
2022/04/24 11:30:40;;;;;;;5.30;2.03;;;;;;;;;;5188279;27;20049;-86
2022/04/24 11:33:25;;;;;;;4.28;1.90;;;;;;;;;;5161391;27;20062;-85
2022/04/24 11:36:09;;;;;;;4.00;2.30;;;;;;;;;;5191048;27;20082;-84
2022/04/24 11:38:54;;;;;;;5.72;2.22;;;;;;;;;;5161524;27;20098;-84
2022/04/24 11:41:39;;;;;;;4.07;2.35;;;17.30;91.10;;;;;;5171514;27;20090;-85
2022/04/24 11:50:32;;;;;;;4.50;2.45;;;;;;;;;;5177414;27;20105;-84
2022/04/24 11:53:16;;;;;;;7.68;1.92;;;;;;;;;;5146959;27;20041;-86
2022/04/24 11:56:01;;;;;;;6.63;2.22;;;;;;;;;;5162006;27;20042;-87
2022/04/24 11:58:46;;;;;;;3.75;2.08;;;;;;;;;;5177378;27;20542;-87
2022/04/24 12:01:30;;;;;;;6.90;2.33;;;;;;;;;;5175701;27;20447;-85
2022/04/24 12:04:19;;;;;;;5.13;2.83;;;;;;;;;;5145892;27;20087;-86
2022/04/24 12:07:05;;;;;;;4.53;2.33;;;;;;;;;;5160989;27;20121;-87
2022/04/24 12:09:59;;;;;;;5.50;2.70;;;;;;;;;;5161962;27;20487;-85
2022/04/24 12:12:47;;;;;;;7.35;2.42;;;;;;;;;;5177571;27;20409;-87
2022/04/24 12:15:32;;;;;;;5.13;2.72;;;;;;;;;;5160083;27;20080;-86
2022/04/24 12:18:23;;;;;;;4.72;2.38;;;16.60;65.20;;;;;;5144606;27;20079;-85
2022/04/24 12:21:18;;;;;;;4.68;2.78;;;16.40;65.90;;;;;;5151802;27;20446;-85
2022/04/24 12:24:03;;;;;;;3.17;2.40;;;;;;;;;;5148977;27;20447;-90
2022/04/24 12:26:49;;;;;;;4.95;2.90;;;16.90;66.20;;;;;;5171338;27;20129;-85
2022/04/24 12:29:43;;;;;;;5.40;2.47;;;;;;;;;;5144043;27;20121;-86
2022/04/24 12:32:28;;;;;;;5.20;2.15;;;;;;;;;;5139951;27;20041;-86
2022/04/24 12:35:29;;;;;;;4.70;2.75;;;;;;;;;;5140312;27;20118;-90
2022/04/24 12:38:17;;;;;;;4.65;2.38;;;;;;;;;;5125701;27;20092;-90
2022/04/24 12:41:02;;;;;;;4.78;2.38;;;;;;;;;;5126394;27;20088;-87
2022/04/24 12:43:46;;;;;;;7.45;2.80;;;;;;;;;;5126029;27;20042;-87
2022/04/24 12:46:31;;;;;;;7.72;3.25;;;16.40;66.90;;;;;;5140049;27;20077;-90
2022/04/24 12:49:30;;;;;;;5.68;2.70;;;16.50;67.10;;;;;;5139790;27;20037;-86
2022/04/24 12:52:15;;;;;;;6.00;2.50;;;;;;;;;;5125469;27;20045;-86
2022/04/24 12:55:00;;;;;;;5.70;2.42;;;;;;;;;;5139370;27;20080;-88
2022/04/24 12:57:44;;;;;;;8.45;3.20;;;;;;;;;;5155682;27;20037;-89
2022/04/24 13:00:29;;;;;;;4.05;2.53;;;;;;;;;;5140016;27;20041;-88
2022/04/24 13:03:14;;;;;;;7.75;3.70;;;;;;;;;;5155495;27;20045;-89
2022/04/24 13:06:00;;;;;;;4.95;2.92;;;;;;;;;;5140255;27;20041;-88
2022/04/24 13:08:45;;;;;;;7.15;3.47;;;;;;;;;;5155993;27;20049;-87
2022/04/24 13:11:29;;;;;;;4.57;3.10;;;16.80;90.10;;;;;;5139843;27;20050;-87
2022/04/24 13:14:14;;;;;;;14.13;3.67;;;;;;;;;;5139937;27;20084;-89
2022/04/24 13:20:03;;;;;;;8.82;2.67;;;;;;;;;;5142949;27;20095;-88
2022/04/24 13:22:48;;;;;;;5.47;3.05;;;;;;;;;;5156215;27;20098;-88
2022/04/24 13:25:36;;;;;;;5.50;3.33;;;17.50;89.30;;;;;;5139502;27;20430;-89
2022/04/24 13:28:21;;;;;;;5.95;3.00;;;17.20;90.10;;;;;;5139346;27;20087;-87
2022/04/24 13:31:05;;;;;;;7.68;2.63;;;;;;;;;;5139419;27;20061;-88
2022/04/24 13:33:51;;;;;;;6.97;3.15;;;;;;;;;;5139777;27;20037;-90
2022/04/24 13:36:35;;;;;;;4.57;2.80;;;;;;;;;;5139098;27;20038;-88
2022/04/24 13:39:20;;;;;;;6.18;3.15;;;;;;;;;;5139739;27;20548;-87
2022/04/24 13:42:07;;;;;;;4.70;2.40;;;17.20;91.30;;;;;;5126575;27;20398;-87
2022/04/24 13:44:52;;;;;;;8.20;2.88;;;;;;;;;;5141522;27;20042;-88
2022/04/24 13:47:37;;;;;;;7.07;2.80;;;;;;;;;;5125971;27;20099;-87
2022/04/24 13:50:21;;;;;;;6.32;2.88;;;;;;;;;;5130256;27;20090;-88
2022/04/24 13:53:07;;;;;;;8.77;2.78;;;;;;;;;;5142754;27;20042;-90
2022/04/24 13:55:51;;;;;;;6.53;2.70;;;;;;;;;;5140702;27;20127;-89
2022/04/24 13:58:36;;;;;;;5.13;2.67;;;;;;;;;;5140134;27;20036;-88
2022/04/24 14:01:21;;;;;;;4.70;2.70;;;;;;;;;;5139305;27;20099;-87
2022/04/24 14:04:06;;;;;;;4.88;2.63;;;;;;;;;;5140137;27;20125;-84
2022/04/24 14:06:51;;;;;;;6.63;2.78;;;;;;;;;;5127818;27;20121;-86
2022/04/24 14:09:36;;;;;;;4.97;2.42;;;;;;;;;;5138639;27;20043;-86
2022/04/24 14:12:21;;;;;;;3.58;2.38;;;;;;;;;;5154006;27;20049;-87
2022/04/24 14:15:06;;;;;;;5.68;2.78;;;17.20;91.00;;;;;;5124421;27;20070;-86
2022/04/24 14:17:55;;;;;;;6.60;2.33;;;;;;;;;;5139030;27;20467;-85
2022/04/24 14:20:40;;;;;;;5.10;2.58;;;;;;;;;;5124387;27;20501;-87
2022/04/24 14:23:25;;;;;;;5.95;2.45;;;;;;;;;;5138313;27;20547;-87
2022/04/24 14:26:09;;;;;;;4.97;2.83;;;;;;;;;;5124354;27;20118;-86
2022/04/24 14:28:54;;;;;;;6.65;2.45;;;;;;;;;;5124664;27;20460;-89
2022/04/24 14:31:38;;;;;;;3.92;2.50;;;;;;;;;;5138821;27;20065;-88
2022/04/24 14:34:24;;;;;;;5.20;2.60;;;;;;;;;;5153733;27;20079;-89
2022/04/24 14:37:09;;;;;;;5.63;2.58;;;;;;;;;;5139003;27;20065;-86
2022/04/24 14:39:54;;;;;;;6.90;2.95;;;;;;;;;;5139016;27;20038;-86
2022/04/24 14:42:38;;;;;;;6.88;2.45;;;;;;;;;;5123166;27;20046;-88
2022/04/24 14:55:44;;;;;;;4.80;3.28;;;;;;;;;;5138120;27;20534;-86
2022/04/24 14:57:38;;;;;;;7.28;2.50;;;;;;;;;;5141161;27;20399;-88
2022/04/24 15:00:26;;;;;;;3.97;2.22;;;;;;;;;;5154041;27;20414;-87
2022/04/24 15:03:12;;;;;;;4.93;2.83;;;;;;;;;;5139636;27;20458;-86
2022/04/24 15:05:56;;;;;;;6.53;2.55;;;;;;;;;;5138819;27;20099;-86
2022/04/24 15:08:41;;;;;;;5.53;3.33;;;;;;;;;;5123537;27;20099;-87
2022/04/24 15:11:26;;;;;;;8.13;2.58;;;;;;;;;;5138000;27;20092;-91
2022/04/24 15:14:11;;;;;;;6.45;2.33;;;;;;;;;;5124235;27;20045;-85
2022/04/24 15:16:55;;;;;;;4.90;2.50;;;;;;;;;;5139051;27;20576;-84
2022/04/24 15:19:40;;;;;;;4.72;2.35;;;;;;;;;;5127188;27;20038;-87
2022/04/24 15:22:25;;;;;;;6.95;2.90;;;;;;;;;;5142593;27;20057;-88
2022/04/24 15:25:12;;;;;;;5.13;2.53;;;;;;;;;;5127693;27;20087;-88
2022/04/24 15:27:57;;;;;;;4.70;2.60;;;;;;;;;;5142369;27;20535;-87
2022/04/24 15:30:42;;;;;;;4.55;2.47;;;;;;;;;;5141624;27;20053;-87
2022/04/24 15:33:28;;;;;;;5.43;2.92;;;;;;;;;;5157317;27;20045;-87
2022/04/24 15:36:13;;;;;;;6.20;2.75;;;;;;;;;;5127691;27;20451;-89
2022/04/24 15:38:57;;;;;;;5.10;2.65;;;;;;;;;;5127335;27;20053;-84
2022/04/24 15:41:42;;;;;;;6.28;2.88;;;;;;;;;;5126465;27;20126;-85
2022/04/24 15:44:27;;;;;;;8.80;2.92;;;;;;;;;;5141423;27;20455;-86
2022/04/24 15:47:11;;;;;;;7.53;2.80;;;;;;;;;;5141532;27;20033;-86
2022/04/24 15:49:57;;;;;;;5.38;2.35;;;;;;;;;;5167000;27;20060;-86
2022/04/24 15:52:42;;;;;;;4.25;2.65;;;;;;;;;;5157671;27;20037;-86
2022/04/24 15:55:32;;;;;;;6.35;2.80;;;;;;;;;;5162207;27;20105;-87
2022/04/24 15:58:16;;;;;;;5.10;2.60;;;;;;;;;;5178027;27;20110;-85
2022/04/24 16:01:06;;;;;;;6.20;2.50;;;;;;;;;;5167697;27;20094;-87
2022/04/24 16:03:51;;;;;;;5.70;2.60;;;;;;;;;;5171337;27;20098;-87
2022/04/24 16:06:36;;;;;;;5.45;2.38;;;;;;;;;;5177157;27;20033;-88
2022/04/24 16:09:20;;;;;;;7.47;3.28;;;;;;;;;;5160047;27;20058;-87
2022/04/24 16:12:06;;;;;;;6.05;2.88;;;;;;;;;;5153765;27;20074;-88
2022/04/24 16:14:51;;;;;;;4.80;2.95;;;;;;;;;;5161531;27;20045;-88
2022/04/24 16:17:35;;;;;;;7.00;2.90;;;;;;;;;;5158725;27;20041;-91
2022/04/24 16:20:20;;;;;;;6.50;2.92;;;;;;;;;;5168838;27;20037;-87
2022/04/24 16:23:05;;;;;;;6.38;2.70;;;;;;;;;;5165325;27;20070;-85
2022/04/24 16:25:50;;;;;;;6.07;2.50;;;;;;;;;;5143285;27;20033;-86
2022/04/24 16:28:34;;;;;;;4.00;2.55;;;;;;;;;;5172391;27;20490;-90
2022/04/24 16:31:20;;;;;;;6.97;2.65;;;;;;;;;;5147938;27;20088;-88
2022/04/24 16:34:05;;;;;;;8.45;3.72;;;;;;;;;;5152038;27;20075;-87
2022/04/24 16:36:50;;;;;;;6.68;3.15;;;;;;;;;;5158694;27;20035;-87
2022/04/24 16:39:34;;;;;;;6.63;3.50;;;;;;;;;;5147738;27;20054;-86